sensor_id;sensor_type;location;lat;lon;timestamp;pressure;altitude;pressure_sealevel;temperature;humidity
44351;BME280;62766;62.622;17.912;2023-03-30T00:00:11;100983.70;;;-8.16;39.56
44351;BME280;62766;62.622;17.912;2023-03-30T00:02:40;100983.33;;;-8.12;39.65
44351;BME280;62766;62.622;17.912;2023-03-30T00:05:09;100977.74;;;-8.22;39.59
44351;BME280;62766;62.622;17.912;2023-03-30T00:07:38;100977.30;;;-8.30;39.57
44351;BME280;62766;62.622;17.912;2023-03-30T00:10:08;100971.50;;;-8.26;39.68
44351;BME280;62766;62.622;17.912;2023-03-30T00:12:37;100970.01;;;-8.31;39.63
44351;BME280;62766;62.622;17.912;2023-03-30T00:15:08;100963.49;;;-8.17;39.56
44351;BME280;62766;62.622;17.912;2023-03-30T00:17:37;100965.62;;;-8.20;39.57
44351;BME280;62766;62.622;17.912;2023-03-30T00:20:07;100962.15;;;-8.26;39.45
44351;BME280;62766;62.622;17.912;2023-03-30T00:22:35;100961.12;;;-8.31;39.33
44351;BME280;62766;62.622;17.912;2023-03-30T00:25:06;100961.89;;;-8.16;39.37
44351;BME280;62766;62.622;17.912;2023-03-30T00:27:35;100959.71;;;-8.26;39.39
44351;BME280;62766;62.622;17.912;2023-03-30T00:30:04;100961.00;;;-8.31;39.47
44351;BME280;62766;62.622;17.912;2023-03-30T00:32:34;100961.47;;;-8.40;39.62
44351;BME280;62766;62.622;17.912;2023-03-30T00:35:04;100962.08;;;-8.43;39.47
44351;BME280;62766;62.622;17.912;2023-03-30T00:37:33;100962.43;;;-8.50;39.53
44351;BME280;62766;62.622;17.912;2023-03-30T00:40:02;100959.59;;;-8.45;39.66
44351;BME280;62766;62.622;17.912;2023-03-30T00:42:31;100958.30;;;-8.54;39.66
44351;BME280;62766;62.622;17.912;2023-03-30T00:45:20;100953.99;;;-8.66;39.81
44351;BME280;62766;62.622;17.912;2023-03-30T00:47:54;100956.25;;;-8.70;39.89
44351;BME280;62766;62.622;17.912;2023-03-30T00:50:26;100959.64;;;-8.67;40.04
44351;BME280;62766;62.622;17.912;2023-03-30T00:52:56;100961.57;;;-8.80;40.17
44351;BME280;62766;62.622;17.912;2023-03-30T00:55:28;100961.97;;;-8.68;40.13
44351;BME280;62766;62.622;17.912;2023-03-30T00:57:58;100960.08;;;-8.57;40.29
44351;BME280;62766;62.622;17.912;2023-03-30T01:00:27;100956.28;;;-8.71;40.33
44351;BME280;62766;62.622;17.912;2023-03-30T01:02:59;100954.79;;;-8.69;40.28
44351;BME280;62766;62.622;17.912;2023-03-30T01:05:28;100959.77;;;-8.80;40.34
44351;BME280;62766;62.622;17.912;2023-03-30T01:07:57;100963.40;;;-8.75;40.50
44351;BME280;62766;62.622;17.912;2023-03-30T01:10:26;100965.04;;;-8.72;40.46
44351;BME280;62766;62.622;17.912;2023-03-30T01:12:54;100961.65;;;-8.72;40.23
44351;BME280;62766;62.622;17.912;2023-03-30T01:15:24;100963.86;;;-8.79;40.15
44351;BME280;62766;62.622;17.912;2023-03-30T01:18:01;100960.81;;;-8.83;40.21
44351;BME280;62766;62.622;17.912;2023-03-30T01:25:43;100961.65;;;-8.84;40.14
44351;BME280;62766;62.622;17.912;2023-03-30T01:28:24;100961.29;;;-9.01;40.42
44351;BME280;62766;62.622;17.912;2023-03-30T01:31:14;100961.30;;;-9.06;40.61
44351;BME280;62766;62.622;17.912;2023-03-30T01:35:06;100958.36;;;-9.18;40.77
44351;BME280;62766;62.622;17.912;2023-03-30T01:37:49;100955.26;;;-9.36;40.69
44351;BME280;62766;62.622;17.912;2023-03-30T01:40:19;100955.10;;;-9.29;41.19
44351;BME280;62766;62.622;17.912;2023-03-30T01:42:56;100960.76;;;-9.42;41.25
44351;BME280;62766;62.622;17.912;2023-03-30T01:45:32;100955.66;;;-9.44;41.14
44351;BME280;62766;62.622;17.912;2023-03-30T01:48:09;100955.18;;;-9.64;41.19
44351;BME280;62766;62.622;17.912;2023-03-30T01:50:41;100956.26;;;-9.55;41.54
44351;BME280;62766;62.622;17.912;2023-03-30T01:53:14;100955.00;;;-9.65;41.64
44351;BME280;62766;62.622;17.912;2023-03-30T01:55:48;100948.92;;;-9.68;41.53
44351;BME280;62766;62.622;17.912;2023-03-30T01:58:23;100948.37;;;-9.73;41.35
44351;BME280;62766;62.622;17.912;2023-03-30T02:00:55;100948.53;;;-9.54;41.11
44351;BME280;62766;62.622;17.912;2023-03-30T02:03:26;100943.74;;;-9.55;41.01
44351;BME280;62766;62.622;17.912;2023-03-30T02:06:00;100946.06;;;-9.50;40.82
44351;BME280;62766;62.622;17.912;2023-03-30T02:08:31;100945.87;;;-9.43;40.80
44351;BME280;62766;62.622;17.912;2023-03-30T02:11:04;100945.26;;;-9.58;40.86
44351;BME280;62766;62.622;17.912;2023-03-30T02:13:35;100946.37;;;-9.52;40.92
44351;BME280;62766;62.622;17.912;2023-03-30T02:16:10;100947.07;;;-9.63;41.09
44351;BME280;62766;62.622;17.912;2023-03-30T02:18:42;100946.16;;;-9.71;41.30
44351;BME280;62766;62.622;17.912;2023-03-30T02:21:10;100944.34;;;-9.67;41.57
44351;BME280;62766;62.622;17.912;2023-03-30T02:23:41;100943.43;;;-9.62;41.63
44351;BME280;62766;62.622;17.912;2023-03-30T02:26:12;100941.90;;;-9.63;41.40
44351;BME280;62766;62.622;17.912;2023-03-30T02:28:40;100935.59;;;-9.72;41.32
44351;BME280;62766;62.622;17.912;2023-03-30T02:31:11;100929.88;;;-9.67;41.41
44351;BME280;62766;62.622;17.912;2023-03-30T02:33:51;100927.76;;;-9.62;41.19
44351;BME280;62766;62.622;17.912;2023-03-30T02:36:36;100929.39;;;-9.78;41.02
44351;BME280;62766;62.622;17.912;2023-03-30T02:39:17;100926.73;;;-9.84;40.80
44351;BME280;62766;62.622;17.912;2023-03-30T02:42:13;100921.74;;;-9.80;40.74
44351;BME280;62766;62.622;17.912;2023-03-30T02:44:51;100917.93;;;-10.04;41.33
44351;BME280;62766;62.622;17.912;2023-03-30T02:47:32;100916.94;;;-10.09;41.28
44351;BME280;62766;62.622;17.912;2023-03-30T02:50:08;100911.95;;;-10.20;41.50
44351;BME280;62766;62.622;17.912;2023-03-30T02:52:49;100914.79;;;-10.21;41.88
44351;BME280;62766;62.622;17.912;2023-03-30T02:55:24;100912.66;;;-10.25;41.92
44351;BME280;62766;62.622;17.912;2023-03-30T02:58:02;100911.72;;;-10.35;42.02
44351;BME280;62766;62.622;17.912;2023-03-30T03:00:37;100909.05;;;-10.48;42.49
44351;BME280;62766;62.622;17.912;2023-03-30T03:03:13;100906.06;;;-10.41;42.71
44351;BME280;62766;62.622;17.912;2023-03-30T03:05:44;100906.27;;;-10.51;42.75
44351;BME280;62766;62.622;17.912;2023-03-30T03:08:14;100902.06;;;-10.51;42.68
44351;BME280;62766;62.622;17.912;2023-03-30T03:10:45;100900.89;;;-10.46;42.66
44351;BME280;62766;62.622;17.912;2023-03-30T03:13:15;100900.74;;;-10.47;42.53
44351;BME280;62766;62.622;17.912;2023-03-30T03:15:44;100897.76;;;-10.55;42.60
44351;BME280;62766;62.622;17.912;2023-03-30T03:18:14;100899.55;;;-10.60;42.57
44351;BME280;62766;62.622;17.912;2023-03-30T03:20:42;100900.98;;;-10.63;42.59
44351;BME280;62766;62.622;17.912;2023-03-30T03:23:11;100900.96;;;-10.61;42.70
44351;BME280;62766;62.622;17.912;2023-03-30T03:25:40;100901.24;;;-10.55;42.71
44351;BME280;62766;62.622;17.912;2023-03-30T03:28:08;100899.66;;;-10.55;42.71
44351;BME280;62766;62.622;17.912;2023-03-30T03:30:37;100899.03;;;-10.65;42.69
44351;BME280;62766;62.622;17.912;2023-03-30T03:33:06;100904.42;;;-10.59;42.73
44351;BME280;62766;62.622;17.912;2023-03-30T03:35:35;100900.49;;;-10.65;42.78
44351;BME280;62766;62.622;17.912;2023-03-30T03:38:04;100898.30;;;-10.73;42.80
44351;BME280;62766;62.622;17.912;2023-03-30T03:40:33;100898.14;;;-10.75;42.70
44351;BME280;62766;62.622;17.912;2023-03-30T03:43:01;100895.28;;;-10.69;42.66
44351;BME280;62766;62.622;17.912;2023-03-30T03:45:30;100897.46;;;-10.69;43.05
44351;BME280;62766;62.622;17.912;2023-03-30T03:47:59;100894.22;;;-10.83;43.23
44351;BME280;62766;62.622;17.912;2023-03-30T03:50:28;100894.51;;;-10.79;43.14
44351;BME280;62766;62.622;17.912;2023-03-30T03:52:57;100891.59;;;-10.96;43.06
44351;BME280;62766;62.622;17.912;2023-03-30T03:55:26;100891.01;;;-10.85;43.02
44351;BME280;62766;62.622;17.912;2023-03-30T03:57:55;100887.93;;;-10.71;42.89
44351;BME280;62766;62.622;17.912;2023-03-30T04:03:23;100887.35;;;-10.82;43.13
44351;BME280;62766;62.622;17.912;2023-03-30T04:05:52;100886.04;;;-10.95;42.72
44351;BME280;62766;62.622;17.912;2023-03-30T04:08:21;100887.86;;;-11.03;42.66
44351;BME280;62766;62.622;17.912;2023-03-30T04:10:50;100889.83;;;-10.91;43.05
44351;BME280;62766;62.622;17.912;2023-03-30T04:13:18;100891.06;;;-10.85;43.03
44351;BME280;62766;62.622;17.912;2023-03-30T04:15:47;100887.45;;;-10.81;43.07
44351;BME280;62766;62.622;17.912;2023-03-30T04:18:16;100888.70;;;-10.92;43.05
44351;BME280;62766;62.622;17.912;2023-03-30T04:20:45;100892.05;;;-10.85;42.86
44351;BME280;62766;62.622;17.912;2023-03-30T04:23:15;100892.12;;;-10.89;42.95
44351;BME280;62766;62.622;17.912;2023-03-30T04:25:43;100891.79;;;-11.10;42.92
44351;BME280;62766;62.622;17.912;2023-03-30T04:28:12;100889.81;;;-11.10;43.19
44351;BME280;62766;62.622;17.912;2023-03-30T04:30:40;100891.86;;;-11.16;43.15
44351;BME280;62766;62.622;17.912;2023-03-30T04:33:09;100888.65;;;-11.06;43.07
44351;BME280;62766;62.622;17.912;2023-03-30T04:35:38;100883.84;;;-11.14;42.97
44351;BME280;62766;62.622;17.912;2023-03-30T04:38:07;100884.77;;;-10.98;42.77
44351;BME280;62766;62.622;17.912;2023-03-30T04:40:36;100887.88;;;-10.94;42.57
44351;BME280;62766;62.622;17.912;2023-03-30T04:43:05;100887.22;;;-10.96;42.64
44351;BME280;62766;62.622;17.912;2023-03-30T04:45:34;100885.88;;;-11.15;42.76
44351;BME280;62766;62.622;17.912;2023-03-30T04:48:03;100887.90;;;-10.92;42.92
44351;BME280;62766;62.622;17.912;2023-03-30T04:50:31;100887.00;;;-10.98;43.11
44351;BME280;62766;62.622;17.912;2023-03-30T04:53:00;100890.07;;;-11.06;43.09
44351;BME280;62766;62.622;17.912;2023-03-30T04:55:28;100887.69;;;-10.98;43.45
44351;BME280;62766;62.622;17.912;2023-03-30T04:57:57;100880.90;;;-10.94;43.34
44351;BME280;62766;62.622;17.912;2023-03-30T05:00:26;100884.21;;;-11.01;42.94
44351;BME280;62766;62.622;17.912;2023-03-30T05:02:55;100877.69;;;-11.02;42.83
44351;BME280;62766;62.622;17.912;2023-03-30T05:05:24;100873.80;;;-10.91;43.05
44351;BME280;62766;62.622;17.912;2023-03-30T05:07:53;100874.14;;;-10.92;43.20
44351;BME280;62766;62.622;17.912;2023-03-30T05:10:22;100869.98;;;-10.79;43.22
44351;BME280;62766;62.622;17.912;2023-03-30T05:12:53;100867.80;;;-10.71;42.97
44351;BME280;62766;62.622;17.912;2023-03-30T05:15:21;100864.95;;;-10.63;43.09
44351;BME280;62766;62.622;17.912;2023-03-30T05:17:50;100859.92;;;-10.51;42.79
44351;BME280;62766;62.622;17.912;2023-03-30T05:20:19;100857.75;;;-10.45;42.66
44351;BME280;62766;62.622;17.912;2023-03-30T05:22:49;100852.15;;;-10.29;42.55
44351;BME280;62766;62.622;17.912;2023-03-30T05:25:17;100852.23;;;-10.08;42.58
44351;BME280;62766;62.622;17.912;2023-03-30T05:27:45;100849.17;;;-9.98;42.54
44351;BME280;62766;62.622;17.912;2023-03-30T05:30:15;100849.37;;;-9.93;42.34
44351;BME280;62766;62.622;17.912;2023-03-30T05:32:45;100851.63;;;-9.68;42.20
44351;BME280;62766;62.622;17.912;2023-03-30T05:35:15;100849.21;;;-9.69;41.86
44351;BME280;62766;62.622;17.912;2023-03-30T05:37:44;100843.64;;;-9.59;41.55
44351;BME280;62766;62.622;17.912;2023-03-30T05:40:14;100844.46;;;-9.57;41.27
44351;BME280;62766;62.622;17.912;2023-03-30T05:42:42;100844.19;;;-9.56;41.08
44351;BME280;62766;62.622;17.912;2023-03-30T05:45:11;100840.89;;;-9.61;40.90
44351;BME280;62766;62.622;17.912;2023-03-30T05:47:40;100834.72;;;-9.52;40.73
44351;BME280;62766;62.622;17.912;2023-03-30T05:50:09;100833.95;;;-9.41;40.74
44351;BME280;62766;62.622;17.912;2023-03-30T05:52:38;100832.28;;;-9.35;40.51
44351;BME280;62766;62.622;17.912;2023-03-30T05:55:08;100828.11;;;-9.19;40.30
44351;BME280;62766;62.622;17.912;2023-03-30T05:57:37;100823.59;;;-9.14;40.02
44351;BME280;62766;62.622;17.912;2023-03-30T06:00:06;100822.67;;;-9.01;39.91
44351;BME280;62766;62.622;17.912;2023-03-30T06:02:35;100820.11;;;-8.89;39.70
44351;BME280;62766;62.622;17.912;2023-03-30T06:05:05;100818.06;;;-8.92;39.67
44351;BME280;62766;62.622;17.912;2023-03-30T06:07:33;100815.51;;;-8.82;39.55
44351;BME280;62766;62.622;17.912;2023-03-30T06:10:02;100814.62;;;-8.78;39.35
44351;BME280;62766;62.622;17.912;2023-03-30T06:12:30;100817.93;;;-8.73;39.22
44351;BME280;62766;62.622;17.912;2023-03-30T06:14:59;100816.30;;;-8.73;38.96
44351;BME280;62766;62.622;17.912;2023-03-30T06:17:28;100815.28;;;-8.69;38.87
44351;BME280;62766;62.622;17.912;2023-03-30T06:19:56;100815.81;;;-8.59;38.63
44351;BME280;62766;62.622;17.912;2023-03-30T06:22:25;100814.45;;;-8.56;38.38
44351;BME280;62766;62.622;17.912;2023-03-30T06:24:54;100812.22;;;-8.55;38.26
44351;BME280;62766;62.622;17.912;2023-03-30T06:27:23;100810.84;;;-8.43;37.95
44351;BME280;62766;62.622;17.912;2023-03-30T06:29:51;100811.58;;;-8.42;37.75
44351;BME280;62766;62.622;17.912;2023-03-30T06:32:20;100813.23;;;-8.36;37.56
44351;BME280;62766;62.622;17.912;2023-03-30T06:34:49;100811.21;;;-8.25;37.65
44351;BME280;62766;62.622;17.912;2023-03-30T06:37:18;100811.77;;;-8.40;37.92
44351;BME280;62766;62.622;17.912;2023-03-30T06:39:47;100814.00;;;-8.30;38.01
44351;BME280;62766;62.622;17.912;2023-03-30T06:42:16;100811.57;;;-8.04;38.27
44351;BME280;62766;62.622;17.912;2023-03-30T06:44:44;100811.28;;;-7.81;38.10
44351;BME280;62766;62.622;17.912;2023-03-30T06:47:13;100812.31;;;-7.83;37.73
44351;BME280;62766;62.622;17.912;2023-03-30T06:49:42;100809.91;;;-7.75;37.39
44351;BME280;62766;62.622;17.912;2023-03-30T06:52:11;100810.89;;;-7.92;37.39
44351;BME280;62766;62.622;17.912;2023-03-30T06:54:39;100807.60;;;-7.77;37.63
44351;BME280;62766;62.622;17.912;2023-03-30T06:57:08;100802.26;;;-7.73;37.52
44351;BME280;62766;62.622;17.912;2023-03-30T06:59:37;100802.08;;;-7.60;37.51
44351;BME280;62766;62.622;17.912;2023-03-30T07:02:05;100797.84;;;-7.53;37.47
44351;BME280;62766;62.622;17.912;2023-03-30T07:04:34;100795.92;;;-7.20;37.56
44351;BME280;62766;62.622;17.912;2023-03-30T07:07:03;100794.39;;;-7.07;37.37
44351;BME280;62766;62.622;17.912;2023-03-30T07:09:32;100794.94;;;-6.92;37.17
44351;BME280;62766;62.622;17.912;2023-03-30T07:12:00;100798.22;;;-6.65;36.72
44351;BME280;62766;62.622;17.912;2023-03-30T07:14:29;100797.16;;;-6.64;36.74
44351;BME280;62766;62.622;17.912;2023-03-30T07:16:58;100796.64;;;-6.37;36.61
44351;BME280;62766;62.622;17.912;2023-03-30T07:19:27;100792.00;;;-6.18;36.19
44351;BME280;62766;62.622;17.912;2023-03-30T07:21:56;100793.31;;;-6.00;36.24
44351;BME280;62766;62.622;17.912;2023-03-30T07:24:25;100793.75;;;-5.77;36.64
44351;BME280;62766;62.622;17.912;2023-03-30T07:26:54;100789.74;;;-5.78;37.16
44351;BME280;62766;62.622;17.912;2023-03-30T07:29:23;100795.61;;;-5.44;37.34
44351;BME280;62766;62.622;17.912;2023-03-30T07:31:52;100791.51;;;-5.39;37.20
44351;BME280;62766;62.622;17.912;2023-03-30T07:34:20;100790.67;;;-5.37;36.94
44351;BME280;62766;62.622;17.912;2023-03-30T07:36:50;100787.16;;;-5.13;37.13
44351;BME280;62766;62.622;17.912;2023-03-30T07:39:18;100783.59;;;-5.04;36.87
44351;BME280;62766;62.622;17.912;2023-03-30T07:41:47;100781.49;;;-5.02;36.95
44351;BME280;62766;62.622;17.912;2023-03-30T07:44:16;100780.14;;;-4.93;37.22
44351;BME280;62766;62.622;17.912;2023-03-30T07:46:45;100774.37;;;-4.81;36.96
44351;BME280;62766;62.622;17.912;2023-03-30T07:49:13;100773.19;;;-4.58;37.13
44351;BME280;62766;62.622;17.912;2023-03-30T07:51:42;100776.08;;;-4.35;36.68
44351;BME280;62766;62.622;17.912;2023-03-30T07:54:11;100775.10;;;-4.17;36.42
44351;BME280;62766;62.622;17.912;2023-03-30T07:56:39;100774.02;;;-4.06;35.97
44351;BME280;62766;62.622;17.912;2023-03-30T07:59:08;100769.28;;;-3.80;35.74
44351;BME280;62766;62.622;17.912;2023-03-30T08:01:38;100771.85;;;-3.74;35.69
44351;BME280;62766;62.622;17.912;2023-03-30T08:04:07;100774.95;;;-3.68;35.40
44351;BME280;62766;62.622;17.912;2023-03-30T08:06:36;100771.34;;;-3.55;35.46
44351;BME280;62766;62.622;17.912;2023-03-30T08:09:05;100768.85;;;-3.38;35.03
44351;BME280;62766;62.622;17.912;2023-03-30T08:11:33;100768.97;;;-3.13;34.69
44351;BME280;62766;62.622;17.912;2023-03-30T08:14:01;100770.74;;;-2.89;34.53
44351;BME280;62766;62.622;17.912;2023-03-30T08:16:30;100767.79;;;-2.82;34.27
44351;BME280;62766;62.622;17.912;2023-03-30T08:18:58;100767.37;;;-2.85;33.86
44351;BME280;62766;62.622;17.912;2023-03-30T08:21:32;100767.01;;;-2.84;33.62
44351;BME280;62766;62.622;17.912;2023-03-30T08:24:00;100764.43;;;-2.76;33.82
44351;BME280;62766;62.622;17.912;2023-03-30T08:26:29;100764.20;;;-2.66;33.64
44351;BME280;62766;62.622;17.912;2023-03-30T08:28:57;100763.45;;;-2.57;33.79
44351;BME280;62766;62.622;17.912;2023-03-30T08:31:26;100761.62;;;-2.49;33.66
44351;BME280;62766;62.622;17.912;2023-03-30T08:33:55;100756.80;;;-2.46;33.55
44351;BME280;62766;62.622;17.912;2023-03-30T08:36:24;100760.65;;;-2.26;33.34
44351;BME280;62766;62.622;17.912;2023-03-30T08:38:53;100757.37;;;-2.36;33.28
44351;BME280;62766;62.622;17.912;2023-03-30T08:41:40;100751.79;;;-2.18;33.30
44351;BME280;62766;62.622;17.912;2023-03-30T08:44:19;100746.79;;;-1.99;33.30
44351;BME280;62766;62.622;17.912;2023-03-30T08:46:52;100740.60;;;-1.84;32.77
44351;BME280;62766;62.622;17.912;2023-03-30T08:49:22;100738.41;;;-1.80;32.69
44351;BME280;62766;62.622;17.912;2023-03-30T08:51:52;100733.26;;;-1.72;32.98
44351;BME280;62766;62.622;17.912;2023-03-30T08:54:22;100734.54;;;-1.58;32.80
44351;BME280;62766;62.622;17.912;2023-03-30T08:56:59;100731.51;;;-1.78;32.38
44351;BME280;62766;62.622;17.912;2023-03-30T08:59:39;100729.97;;;-1.68;32.52
44351;BME280;62766;62.622;17.912;2023-03-30T09:02:16;100732.61;;;-1.87;32.25
44351;BME280;62766;62.622;17.912;2023-03-30T09:04:54;100728.58;;;-1.79;32.13
44351;BME280;62766;62.622;17.912;2023-03-30T09:07:25;100728.03;;;-1.94;31.92
44351;BME280;62766;62.622;17.912;2023-03-30T09:09:56;100723.71;;;-1.85;32.02
44351;BME280;62766;62.622;17.912;2023-03-30T09:12:37;100723.89;;;-1.65;32.57
44351;BME280;62766;62.622;17.912;2023-03-30T09:15:11;100725.17;;;-1.49;32.11
44351;BME280;62766;62.622;17.912;2023-03-30T09:17:46;100721.70;;;-1.30;32.23
44351;BME280;62766;62.622;17.912;2023-03-30T09:20:21;100718.57;;;-1.26;31.81
44351;BME280;62766;62.622;17.912;2023-03-30T09:22:52;100719.20;;;-1.10;31.42
44351;BME280;62766;62.622;17.912;2023-03-30T09:25:27;100715.26;;;-1.10;30.76
44351;BME280;62766;62.622;17.912;2023-03-30T09:28:05;100713.73;;;-0.98;31.40
44351;BME280;62766;62.622;17.912;2023-03-30T09:30:39;100709.01;;;-0.74;30.99
44351;BME280;62766;62.622;17.912;2023-03-30T09:33:15;100702.56;;;-0.46;30.67
44351;BME280;62766;62.622;17.912;2023-03-30T09:35:59;100702.28;;;-0.31;29.95
44351;BME280;62766;62.622;17.912;2023-03-30T09:38:36;100699.83;;;-0.19;29.91
44351;BME280;62766;62.622;17.912;2023-03-30T09:41:14;100695.09;;;-0.26;29.55
44351;BME280;62766;62.622;17.912;2023-03-30T09:43:45;100691.87;;;-0.05;29.86
44351;BME280;62766;62.622;17.912;2023-03-30T09:46:15;100695.43;;;0.30;29.87
44351;BME280;62766;62.622;17.912;2023-03-30T09:48:45;100692.90;;;0.45;29.58
44351;BME280;62766;62.622;17.912;2023-03-30T09:51:18;100687.95;;;0.43;29.10
44351;BME280;62766;62.622;17.912;2023-03-30T09:53:48;100686.57;;;0.61;29.14
44351;BME280;62766;62.622;17.912;2023-03-30T09:56:20;100685.08;;;0.93;28.94
44351;BME280;62766;62.622;17.912;2023-03-30T09:58:48;100681.77;;;1.03;29.15
44351;BME280;62766;62.622;17.912;2023-03-30T10:03:21;100673.12;;;1.15;28.64
44351;BME280;62766;62.622;17.912;2023-03-30T10:06:00;100667.72;;;1.51;28.93
44351;BME280;62766;62.622;17.912;2023-03-30T10:08:30;100663.52;;;1.80;29.15
44351;BME280;62766;62.622;17.912;2023-03-30T10:10:58;100658.68;;;1.90;29.03
44351;BME280;62766;62.622;17.912;2023-03-30T10:13:30;100660.30;;;2.06;29.99
44351;BME280;62766;62.622;17.912;2023-03-30T10:16:04;100656.81;;;2.20;30.52
44351;BME280;62766;62.622;17.912;2023-03-30T10:18:38;100655.20;;;2.22;31.40
44351;BME280;62766;62.622;17.912;2023-03-30T10:21:17;100650.69;;;2.35;31.09
44351;BME280;62766;62.622;17.912;2023-03-30T10:23:58;100649.13;;;2.43;31.33
44351;BME280;62766;62.622;17.912;2023-03-30T10:26:30;100647.56;;;2.60;30.61
44351;BME280;62766;62.622;17.912;2023-03-30T10:29:01;100646.33;;;2.73;30.77
44351;BME280;62766;62.622;17.912;2023-03-30T10:31:34;100646.09;;;2.63;30.46
44351;BME280;62766;62.622;17.912;2023-03-30T10:34:06;100644.99;;;2.51;30.80
44351;BME280;62766;62.622;17.912;2023-03-30T10:36:45;100644.77;;;2.72;31.59
44351;BME280;62766;62.622;17.912;2023-03-30T10:39:19;100646.57;;;2.81;32.15
44351;BME280;62766;62.622;17.912;2023-03-30T10:41:50;100645.33;;;3.01;32.13
44351;BME280;62766;62.622;17.912;2023-03-30T10:44:23;100642.24;;;3.02;32.21
44351;BME280;62766;62.622;17.912;2023-03-30T10:46:56;100641.04;;;3.14;32.84
44351;BME280;62766;62.622;17.912;2023-03-30T10:49:40;100638.52;;;3.26;33.60
44351;BME280;62766;62.622;17.912;2023-03-30T10:52:16;100635.77;;;3.48;33.38
44351;BME280;62766;62.622;17.912;2023-03-30T10:54:52;100634.24;;;3.59;33.57
44351;BME280;62766;62.622;17.912;2023-03-30T10:57:32;100632.85;;;3.29;32.94
44351;BME280;62766;62.622;17.912;2023-03-30T11:00:23;100628.72;;;3.24;33.29
44351;BME280;62766;62.622;17.912;2023-03-30T11:03:02;100626.54;;;3.45;33.46
44351;BME280;62766;62.622;17.912;2023-03-30T11:05:37;100623.50;;;3.41;33.31
44351;BME280;62766;62.622;17.912;2023-03-30T11:08:12;100624.63;;;3.33;33.41
44351;BME280;62766;62.622;17.912;2023-03-30T11:10:45;100619.99;;;3.56;33.82
44351;BME280;62766;62.622;17.912;2023-03-30T11:13:17;100617.60;;;3.57;34.01
44351;BME280;62766;62.622;17.912;2023-03-30T11:15:50;100617.38;;;3.66;34.05
44351;BME280;62766;62.622;17.912;2023-03-30T11:18:24;100612.29;;;3.58;34.36
44351;BME280;62766;62.622;17.912;2023-03-30T11:20:59;100611.46;;;3.61;34.84
44351;BME280;62766;62.622;17.912;2023-03-30T11:23:36;100613.61;;;3.66;34.98
44351;BME280;62766;62.622;17.912;2023-03-30T11:26:07;100609.27;;;4.01;35.21
44351;BME280;62766;62.622;17.912;2023-03-30T11:28:47;100609.75;;;4.01;34.78
44351;BME280;62766;62.622;17.912;2023-03-30T11:31:27;100607.70;;;4.03;34.38
44351;BME280;62766;62.622;17.912;2023-03-30T11:34:04;100602.47;;;3.89;34.37
44351;BME280;62766;62.622;17.912;2023-03-30T11:36:41;100598.18;;;3.79;34.19
44351;BME280;62766;62.622;17.912;2023-03-30T11:39:15;100599.16;;;3.69;34.91
44351;BME280;62766;62.622;17.912;2023-03-30T11:41:49;100601.06;;;3.68;35.09
44351;BME280;62766;62.622;17.912;2023-03-30T11:44:19;100593.50;;;3.47;34.85
44351;BME280;62766;62.622;17.912;2023-03-30T11:46:53;100585.90;;;3.42;35.29
44351;BME280;62766;62.622;17.912;2023-03-30T11:49:35;100583.69;;;3.40;35.72
44351;BME280;62766;62.622;17.912;2023-03-30T11:52:20;100583.64;;;3.49;35.88
44351;BME280;62766;62.622;17.912;2023-03-30T11:55:06;100582.91;;;3.52;35.79
44351;BME280;62766;62.622;17.912;2023-03-30T11:57:43;100583.34;;;3.72;35.32
44351;BME280;62766;62.622;17.912;2023-03-30T12:00:24;100580.26;;;3.76;35.20
44351;BME280;62766;62.622;17.912;2023-03-30T12:02:59;100577.57;;;3.73;35.18
44351;BME280;62766;62.622;17.912;2023-03-30T12:05:34;100573.79;;;3.74;35.29
44351;BME280;62766;62.622;17.912;2023-03-30T12:08:19;100568.35;;;3.67;35.39
44351;BME280;62766;62.622;17.912;2023-03-30T12:10:56;100567.10;;;3.66;35.28
44351;BME280;62766;62.622;17.912;2023-03-30T12:13:26;100564.42;;;3.37;35.16
44351;BME280;62766;62.622;17.912;2023-03-30T12:15:59;100561.60;;;3.46;35.72
44351;BME280;62766;62.622;17.912;2023-03-30T12:18:36;100554.41;;;3.49;35.63
44351;BME280;62766;62.622;17.912;2023-03-30T12:21:27;100553.56;;;3.29;36.14
44351;BME280;62766;62.622;17.912;2023-03-30T12:24:04;100546.90;;;3.52;35.84
44351;BME280;62766;62.622;17.912;2023-03-30T12:26:37;100547.50;;;3.61;35.63
44351;BME280;62766;62.622;17.912;2023-03-30T12:29:09;100548.29;;;3.77;35.26
44351;BME280;62766;62.622;17.912;2023-03-30T12:31:50;100551.41;;;3.91;34.76
44351;BME280;62766;62.622;17.912;2023-03-30T12:34:32;100542.73;;;4.05;34.57
44351;BME280;62766;62.622;17.912;2023-03-30T12:37:04;100539.45;;;4.11;34.47
44351;BME280;62766;62.622;17.912;2023-03-30T12:39:39;100536.07;;;4.29;34.21
44351;BME280;62766;62.622;17.912;2023-03-30T12:42:15;100533.26;;;4.53;33.98
44351;BME280;62766;62.622;17.912;2023-03-30T12:44:53;100530.16;;;4.24;33.40
44351;BME280;62766;62.622;17.912;2023-03-30T12:47:38;100529.04;;;4.23;34.05
44351;BME280;62766;62.622;17.912;2023-03-30T12:50:23;100523.07;;;4.19;34.04
44351;BME280;62766;62.622;17.912;2023-03-30T12:53:06;100524.70;;;4.00;34.75
44351;BME280;62766;62.622;17.912;2023-03-30T12:55:42;100520.70;;;3.61;35.17
44351;BME280;62766;62.622;17.912;2023-03-30T12:58:25;100522.71;;;3.81;35.52
44351;BME280;62766;62.622;17.912;2023-03-30T13:01:11;100519.25;;;3.80;35.67
44351;BME280;62766;62.622;17.912;2023-03-30T13:03:46;100515.41;;;4.07;35.74
44351;BME280;62766;62.622;17.912;2023-03-30T13:06:22;100512.74;;;4.26;35.52
44351;BME280;62766;62.622;17.912;2023-03-30T13:08:54;100504.24;;;4.41;35.58
44351;BME280;62766;62.622;17.912;2023-03-30T13:11:23;100503.29;;;4.58;35.46
44351;BME280;62766;62.622;17.912;2023-03-30T13:13:54;100497.36;;;4.57;35.18
44351;BME280;62766;62.622;17.912;2023-03-30T13:17:08;100494.07;;;4.80;34.80